createdAt,value
2018-02-15T00:00:08.398Z,809.71
2018-02-15T00:01:08.408Z,809.69
2018-02-15T00:02:08.402Z,809.68
2018-02-15T00:03:08.404Z,809.65
2018-02-15T00:04:08.412Z,809.68
2018-02-15T00:05:08.416Z,809.66
2018-02-15T00:06:08.417Z,809.67
2018-02-15T00:07:08.414Z,809.71
2018-02-15T00:08:08.418Z,809.72
2018-02-15T00:09:08.422Z,809.70
2018-02-15T00:10:08.424Z,809.74
2018-02-15T00:11:08.424Z,809.75
2018-02-15T00:12:08.429Z,809.73
2018-02-15T00:13:08.437Z,809.73
2018-02-15T00:14:08.441Z,809.71
2018-02-15T00:15:08.434Z,809.71
2018-02-15T00:16:08.436Z,809.71
2018-02-15T00:17:08.446Z,809.71
2018-02-15T00:18:08.442Z,809.74
2018-02-15T00:19:08.450Z,809.71
2018-02-15T00:20:08.457Z,809.73
2018-02-15T00:21:08.455Z,809.80
2018-02-15T00:22:08.458Z,809.78
2018-02-15T00:23:08.453Z,809.80
2018-02-15T00:24:08.456Z,809.80
2018-02-15T00:25:08.459Z,809.84
2018-02-15T00:26:08.470Z,809.80
2018-02-15T00:27:08.469Z,809.81
2018-02-15T00:28:08.465Z,809.83
2018-02-15T00:29:08.474Z,809.86
2018-02-15T00:30:08.477Z,809.87
2018-02-15T00:31:08.472Z,809.84
2018-02-15T00:32:08.481Z,809.85
2018-02-15T00:33:08.480Z,809.89
2018-02-15T00:34:08.481Z,809.87
2018-02-15T00:35:08.491Z,809.89
2018-02-15T00:36:08.490Z,809.86
2018-02-15T00:37:08.487Z,809.88
2018-02-15T00:38:08.496Z,809.89
2018-02-15T00:39:08.491Z,809.87
2018-02-15T00:40:08.502Z,809.88
2018-02-15T00:41:08.497Z,809.88
2018-02-15T00:42:08.501Z,809.91
2018-02-15T00:43:08.506Z,809.88
2018-02-15T00:44:08.558Z,809.85
2018-02-15T00:45:08.512Z,809.82
2018-02-15T00:46:08.519Z,809.82
2018-02-15T00:47:08.517Z,809.80
2018-02-15T00:48:08.514Z,809.80
2018-02-15T00:49:08.521Z,809.83
2018-02-15T00:50:08.525Z,809.78
2018-02-15T00:51:08.526Z,809.84
2018-02-15T00:52:08.530Z,809.80
2018-02-15T00:53:08.533Z,809.80
2018-02-15T00:54:08.529Z,809.79
2018-02-15T00:55:08.530Z,809.74
2018-02-15T00:56:08.533Z,809.72
2018-02-15T00:57:08.542Z,809.71
2018-02-15T00:58:08.546Z,809.72
2018-02-15T00:59:08.541Z,809.71
2018-02-15T01:00:08.544Z,809.74
2018-02-15T01:01:08.551Z,809.73
2018-02-15T01:02:08.549Z,809.74
2018-02-15T01:03:08.550Z,809.73
2018-02-15T01:04:08.561Z,809.76
2018-02-15T01:05:08.555Z,809.74
2018-02-15T01:06:08.561Z,809.78
2018-02-15T01:07:08.566Z,809.82
2018-02-15T01:08:08.562Z,809.78
2018-02-15T01:09:08.564Z,809.84
2018-02-15T01:10:08.573Z,809.85
2018-02-15T01:11:08.569Z,809.88
2018-02-15T01:12:08.578Z,809.84
2018-02-15T01:13:08.578Z,809.89
2018-02-15T01:14:08.578Z,809.87
2018-02-15T01:15:08.588Z,809.87
2018-02-15T01:16:08.593Z,809.83
2018-02-15T01:17:08.585Z,809.86
2018-02-15T01:18:08.593Z,809.83
2018-02-15T01:19:08.596Z,809.85
2018-02-15T01:20:08.592Z,809.87
2018-02-15T01:21:08.602Z,809.86
2018-02-15T01:22:08.602Z,809.84
2018-02-15T01:23:08.604Z,809.89
2018-02-15T01:24:08.604Z,809.88
2018-02-15T01:25:08.612Z,809.90
2018-02-15T01:26:08.608Z,809.89
2018-02-15T01:27:08.616Z,809.95
2018-02-15T01:28:08.614Z,809.97
2018-02-15T01:29:08.616Z,809.98
2018-02-15T01:30:08.625Z,810.02
2018-02-15T01:31:08.625Z,810.00
2018-02-15T01:32:08.625Z,810.02
2018-02-15T01:33:08.627Z,809.98
2018-02-15T01:34:08.636Z,810.04
2018-02-15T01:35:08.636Z,809.99
2018-02-15T01:36:08.637Z,810.02
2018-02-15T01:37:08.636Z,810.05
2018-02-15T01:38:08.640Z,810.06
2018-02-15T01:39:08.642Z,810.08
2018-02-15T01:40:08.648Z,810.10
2018-02-15T01:41:08.648Z,810.04
2018-02-15T01:42:08.649Z,810.08
2018-02-15T01:43:08.652Z,810.06
2018-02-15T01:44:08.660Z,810.10
2018-02-15T01:45:08.665Z,810.12
2018-02-15T01:46:08.661Z,810.11
2018-02-15T01:47:08.669Z,810.14
2018-02-15T01:48:08.665Z,810.16
2018-02-15T01:49:08.671Z,810.17
2018-02-15T01:50:08.673Z,810.15
2018-02-15T01:51:08.677Z,810.19
2018-02-15T01:52:08.682Z,810.16
2018-02-15T01:53:08.684Z,810.20
2018-02-15T01:54:08.682Z,810.13
2018-02-15T01:55:08.690Z,810.22
2018-02-15T01:56:08.687Z,810.19
2018-02-15T01:57:08.690Z,810.22
2018-02-15T01:58:08.698Z,810.23
2018-02-15T01:59:08.693Z,810.22
2018-02-15T02:00:08.698Z,810.22
2018-02-15T02:01:08.704Z,810.21
2018-02-15T02:02:08.701Z,810.25
2018-02-15T02:03:08.710Z,810.23
2018-02-15T02:04:08.708Z,810.22
2018-02-15T02:05:08.716Z,810.23
2018-02-15T02:06:08.719Z,810.25
2018-02-15T02:07:08.721Z,810.23
2018-02-15T02:08:08.719Z,810.26
2018-02-15T02:09:08.727Z,810.26
2018-02-15T02:10:08.726Z,810.26
2018-02-15T02:11:08.734Z,810.27
2018-02-15T02:12:08.731Z,810.28
2018-02-15T02:13:08.733Z,810.30
2018-02-15T02:14:08.738Z,810.28
2018-02-15T02:15:08.743Z,810.31
2018-02-15T02:16:08.748Z,810.29
2018-02-15T02:17:08.752Z,810.36
2018-02-15T02:18:08.747Z,810.38
2018-02-15T02:19:08.755Z,810.35
2018-02-15T02:20:08.763Z,810.32
2018-02-15T02:21:08.762Z,810.35
2018-02-15T02:22:08.763Z,810.35
2018-02-15T02:23:08.761Z,810.36
2018-02-15T02:24:08.765Z,810.43
2018-02-15T02:25:08.767Z,810.39
2018-02-15T02:26:08.775Z,810.40
2018-02-15T02:27:08.783Z,810.36
2018-02-15T02:28:08.774Z,810.35
2018-02-15T02:29:08.784Z,810.40
2018-02-15T02:30:08.781Z,810.35
2018-02-15T02:31:08.787Z,810.39
2018-02-15T02:32:08.791Z,810.38
2018-02-15T02:33:08.794Z,810.36
2018-02-15T02:34:08.798Z,810.40
2018-02-15T02:35:08.794Z,810.38
2018-02-15T02:36:08.804Z,810.36
2018-02-15T02:37:08.800Z,810.40
2018-02-15T02:38:08.808Z,810.32
2018-02-15T02:39:08.805Z,810.34
2018-02-15T02:40:08.814Z,810.33
2018-02-15T02:41:08.810Z,810.35
2018-02-15T02:42:08.820Z,810.32
2018-02-15T02:43:08.822Z,810.30
2018-02-15T02:44:08.819Z,810.29
2018-02-15T02:45:08.827Z,810.27
2018-02-15T02:46:08.830Z,810.27
2018-02-15T02:47:08.829Z,810.31
2018-02-15T02:48:08.830Z,810.25
2018-02-15T02:49:08.835Z,810.25
2018-02-15T02:50:08.837Z,810.23
2018-02-15T02:51:08.842Z,810.24
2018-02-15T02:52:08.842Z,810.26
2018-02-15T02:53:08.845Z,810.28
2018-02-15T02:54:08.850Z,810.27
2018-02-15T02:55:08.856Z,810.22
2018-02-15T02:56:08.859Z,810.25
2018-02-15T02:57:08.857Z,810.22
2018-02-15T02:58:08.859Z,810.21
2018-02-15T02:59:08.862Z,810.21
2018-02-15T03:00:08.865Z,810.16
2018-02-15T03:01:08.868Z,810.17
2018-02-15T03:02:08.877Z,810.20
2018-02-15T03:03:08.879Z,810.18
2018-02-15T03:04:08.878Z,810.21
2018-02-15T03:05:08.880Z,810.18
2018-02-15T03:06:08.889Z,810.19
2018-02-15T03:07:08.885Z,810.20
2018-02-15T03:08:08.888Z,810.24
2018-02-15T03:09:08.892Z,810.24
2018-02-15T03:10:08.893Z,810.23
2018-02-15T03:11:08.900Z,810.27
2018-02-15T03:12:08.899Z,810.30
2018-02-15T03:13:08.908Z,810.30
2018-02-15T03:14:08.906Z,810.31
2018-02-15T03:15:08.909Z,810.32
2018-02-15T03:16:08.917Z,810.32
2018-02-15T03:17:08.922Z,810.28
2018-02-15T03:18:08.924Z,810.32
2018-02-15T03:19:08.921Z,810.38
2018-02-15T03:20:08.925Z,810.34
2018-02-15T03:21:08.929Z,810.38
2018-02-15T03:22:08.932Z,810.37
2018-02-15T03:23:08.934Z,810.37
2018-02-15T03:24:08.937Z,810.36
2018-02-15T03:25:08.946Z,810.39
2018-02-15T03:26:08.950Z,810.41
2018-02-15T03:27:08.954Z,810.43
2018-02-15T03:28:08.955Z,810.48
2018-02-15T03:29:08.953Z,810.53
2018-02-15T03:30:08.963Z,810.54
2018-02-15T03:31:08.960Z,810.59
2018-02-15T03:32:08.969Z,810.62
2018-02-15T03:33:08.973Z,810.63
2018-02-15T03:34:08.975Z,810.68
2018-02-15T03:35:08.977Z,810.65
2018-02-15T03:36:08.980Z,810.64
2018-02-15T03:37:08.983Z,810.68
2018-02-15T03:38:08.979Z,810.72
2018-02-15T03:39:08.983Z,810.75
2018-02-15T03:40:08.988Z,810.75
2018-02-15T03:41:08.995Z,810.76
2018-02-15T03:42:08.999Z,810.75
2018-02-15T03:43:08.996Z,810.74
2018-02-15T03:44:09.004Z,810.76
2018-02-15T03:45:09.004Z,810.81
2018-02-15T03:46:09.011Z,810.85
2018-02-15T03:47:09.008Z,810.88
2018-02-15T03:48:09.012Z,810.87
2018-02-15T03:49:09.025Z,810.90
2018-02-15T03:50:09.026Z,810.93
2018-02-15T03:51:09.028Z,810.90
2018-02-15T03:52:09.032Z,810.95
2018-02-15T03:53:09.038Z,810.98
2018-02-15T03:54:09.034Z,811.01
2018-02-15T03:55:09.037Z,811.00
2018-02-15T03:56:09.039Z,811.00
2018-02-15T03:57:09.048Z,811.05
2018-02-15T03:58:09.052Z,811.07
2018-02-15T03:59:09.054Z,811.08
2018-02-15T04:00:09.054Z,811.06
2018-02-15T04:01:09.064Z,811.09
2018-02-15T04:02:09.058Z,811.13
2018-02-15T04:03:09.067Z,811.13
2018-02-15T04:04:09.067Z,811.07
2018-02-15T04:05:09.100Z,811.14
2018-02-15T04:06:09.072Z,811.14
2018-02-15T04:07:09.072Z,811.20
2018-02-15T04:08:09.077Z,811.24
2018-02-15T04:09:09.087Z,811.26
2018-02-15T04:10:09.091Z,811.26
2018-02-15T04:11:09.088Z,811.30
2018-02-15T04:12:09.096Z,811.30
2018-02-15T04:13:09.100Z,811.33
2018-02-15T04:14:09.102Z,811.35
2018-02-15T04:15:09.106Z,811.43
2018-02-15T04:16:09.112Z,811.37
2018-02-15T04:17:09.107Z,811.40
2018-02-15T04:18:09.118Z,811.38
2018-02-15T04:19:09.114Z,811.43
2018-02-15T04:20:09.124Z,811.44
2018-02-15T04:21:09.127Z,811.45
2018-02-15T04:22:09.129Z,811.43
2018-02-15T04:23:09.132Z,811.45
2018-02-15T04:24:09.136Z,811.45
2018-02-15T04:25:09.138Z,811.46
2018-02-15T04:26:09.137Z,811.45
2018-02-15T04:27:09.144Z,811.47
2018-02-15T04:28:09.144Z,811.51
2018-02-15T04:29:09.152Z,811.49
2018-02-15T04:30:09.150Z,811.47
2018-02-15T04:31:09.158Z,811.45
2018-02-15T04:32:09.163Z,811.43
2018-02-15T04:33:09.164Z,811.45
2018-02-15T04:34:09.162Z,811.51
2018-02-15T04:35:09.169Z,811.45
2018-02-15T04:36:09.169Z,811.47
2018-02-15T04:37:09.177Z,811.40
2018-02-15T04:38:09.175Z,811.42
2018-02-15T04:39:09.177Z,811.38
2018-02-15T04:40:09.179Z,811.38
2018-02-15T04:41:09.181Z,811.36
2018-02-15T04:42:09.185Z,811.38
2018-02-15T04:43:09.188Z,811.40
2018-02-15T04:44:09.199Z,811.37
2018-02-15T04:45:09.200Z,811.34
2018-02-15T04:46:09.198Z,811.34
2018-02-15T04:47:09.201Z,811.36
2018-02-15T04:48:09.201Z,811.35
2018-02-15T04:49:09.210Z,811.36
2018-02-15T04:50:09.213Z,811.38
2018-02-15T04:51:09.216Z,811.40
2018-02-15T04:52:09.217Z,811.37
2018-02-15T04:53:09.222Z,811.38
2018-02-15T04:54:09.218Z,811.35
2018-02-15T04:55:09.227Z,811.37
2018-02-15T04:56:09.224Z,811.37
2018-02-15T04:57:09.233Z,811.36
2018-02-15T04:58:09.231Z,811.39
2018-02-15T04:59:09.232Z,811.37
2018-02-15T05:00:09.235Z,811.30
2018-02-15T05:01:09.238Z,811.36
2018-02-15T05:02:09.245Z,811.34
2018-02-15T05:03:09.248Z,811.34
2018-02-15T05:04:09.250Z,811.33
2018-02-15T05:05:09.249Z,811.29
2018-02-15T05:06:09.251Z,811.27
2018-02-15T05:07:09.261Z,811.33
2018-02-15T05:08:09.264Z,811.33
2018-02-15T05:09:09.258Z,811.29
2018-02-15T05:10:09.267Z,811.22
2018-02-15T05:11:09.264Z,811.22
2018-02-15T05:12:09.266Z,811.30
2018-02-15T05:13:09.278Z,811.24
2018-02-15T05:14:09.275Z,811.21
2018-02-15T05:15:09.279Z,811.20
2018-02-15T05:16:09.274Z,811.22
2018-02-15T05:17:09.276Z,811.22
2018-02-15T05:18:09.287Z,811.19
2018-02-15T05:19:09.288Z,811.17
2018-02-15T05:20:09.286Z,811.16
2018-02-15T05:21:09.285Z,811.19
2018-02-15T05:22:09.289Z,811.15
2018-02-15T05:23:09.288Z,811.15
2018-02-15T05:24:09.290Z,811.18
2018-02-15T05:25:09.298Z,811.22
2018-02-15T05:26:09.301Z,811.18
2018-02-15T05:27:09.302Z,811.20
2018-02-15T05:28:09.304Z,811.19
2018-02-15T05:29:09.301Z,811.22
2018-02-15T05:30:09.306Z,811.26
2018-02-15T05:31:09.310Z,811.22
2018-02-15T05:32:09.308Z,811.23
2018-02-15T05:33:09.308Z,811.20
2018-02-15T05:34:09.337Z,811.21
2018-02-15T05:35:09.317Z,811.22
2018-02-15T05:36:09.322Z,811.23
2018-02-15T05:37:09.321Z,811.23
2018-02-15T05:38:09.334Z,811.20
2018-02-15T05:39:09.324Z,811.21
2018-02-15T05:40:09.325Z,811.19
2018-02-15T05:41:09.330Z,811.21
2018-02-15T05:42:09.327Z,811.19
2018-02-15T05:43:09.328Z,811.22
2018-02-15T05:44:09.339Z,811.24
2018-02-15T05:45:09.345Z,811.25
2018-02-15T05:46:09.342Z,811.26
2018-02-15T05:47:09.345Z,811.23
2018-02-15T05:48:09.348Z,811.27
2018-02-15T05:49:09.344Z,811.23
2018-02-15T05:50:09.347Z,811.24
2018-02-15T05:51:09.353Z,811.19
2018-02-15T05:52:09.356Z,811.23
2018-02-15T05:53:09.357Z,811.18
2018-02-15T05:54:09.358Z,811.17
2018-02-15T05:55:09.358Z,811.18
2018-02-15T05:56:09.360Z,811.24
2018-02-15T05:57:09.369Z,811.26
2018-02-15T05:58:09.372Z,811.28
2018-02-15T05:59:09.371Z,811.28
2018-02-15T06:00:09.375Z,811.28
2018-02-15T06:01:09.379Z,811.29
2018-02-15T06:02:09.378Z,811.31
2018-02-15T06:03:09.385Z,811.33
2018-02-15T06:04:09.384Z,811.31
2018-02-15T06:05:09.391Z,811.36
2018-02-15T06:06:09.394Z,811.32
2018-02-15T06:07:09.389Z,811.32
2018-02-15T06:08:09.392Z,811.31
2018-02-15T06:09:09.396Z,811.35
2018-02-15T06:10:09.405Z,811.33
2018-02-15T06:11:09.400Z,811.34
2018-02-15T06:12:09.409Z,811.35
2018-02-15T06:13:09.407Z,811.36
2018-02-15T06:14:09.417Z,811.41
2018-02-15T06:15:09.412Z,811.39
2018-02-15T06:16:09.415Z,811.39
2018-02-15T06:17:09.418Z,811.41
2018-02-15T06:18:09.428Z,811.41
2018-02-15T06:19:09.424Z,811.42
2018-02-15T06:20:09.428Z,811.43
2018-02-15T06:21:09.436Z,811.47
2018-02-15T06:22:09.435Z,811.47
2018-02-15T06:23:09.435Z,811.45
2018-02-15T06:24:09.446Z,811.43
2018-02-15T06:25:09.448Z,811.45
2018-02-15T06:26:09.451Z,811.41
2018-02-15T06:27:09.447Z,811.41
2018-02-15T06:28:09.505Z,811.43
2018-02-15T06:29:09.454Z,811.47
2018-02-15T06:30:09.457Z,811.45
2018-02-15T06:31:09.466Z,811.54
2018-02-15T06:32:09.473Z,811.52
2018-02-15T06:33:09.474Z,811.53
2018-02-15T06:34:09.477Z,811.55
2018-02-15T06:35:09.482Z,811.58
2018-02-15T06:36:09.477Z,811.60
2018-02-15T06:37:09.480Z,811.61
2018-02-15T06:38:09.489Z,811.63
2018-02-15T06:39:09.491Z,811.62
2018-02-15T06:40:09.493Z,811.63
2018-02-15T06:41:09.498Z,811.67
2018-02-15T06:42:09.495Z,811.60
2018-02-15T06:43:09.498Z,811.61
2018-02-15T06:44:09.503Z,811.60
2018-02-15T06:45:09.511Z,811.56
2018-02-15T06:46:09.510Z,811.56
2018-02-15T06:47:09.516Z,811.63
2018-02-15T06:48:09.518Z,811.63
2018-02-15T06:49:09.523Z,811.60
2018-02-15T06:50:09.522Z,811.60
2018-02-15T06:51:09.524Z,811.62
2018-02-15T06:52:09.529Z,811.64
2018-02-15T06:53:09.540Z,811.66
2018-02-15T06:54:09.537Z,811.66
2018-02-15T06:55:09.543Z,811.63
2018-02-15T06:56:09.547Z,811.69
2018-02-15T06:57:09.550Z,811.68
2018-02-15T06:58:09.553Z,811.70
2018-02-15T06:59:09.550Z,811.68
2018-02-15T07:00:09.553Z,811.65
2018-02-15T07:01:09.558Z,811.68
2018-02-15T07:02:09.563Z,811.69
2018-02-15T07:03:09.563Z,811.71
2018-02-15T07:04:09.567Z,811.72
2018-02-15T07:05:09.570Z,811.69
2018-02-15T07:06:09.576Z,811.67
2018-02-15T07:07:09.576Z,811.65
2018-02-15T07:08:09.585Z,811.64
2018-02-15T07:09:09.583Z,811.67
2018-02-15T07:10:09.593Z,811.70
2018-02-15T07:11:09.590Z,811.71
2018-02-15T07:12:09.598Z,811.71
2018-02-15T07:13:09.601Z,811.72
2018-02-15T07:14:09.600Z,811.74
2018-02-15T07:15:09.606Z,811.70
2018-02-15T07:16:09.612Z,811.73
2018-02-15T07:17:09.614Z,811.72
2018-02-15T07:18:09.613Z,811.74
2018-02-15T07:19:09.613Z,811.74
2018-02-15T07:20:09.623Z,811.68
2018-02-15T07:21:09.621Z,811.71
2018-02-15T07:22:09.630Z,811.73
2018-02-15T07:23:09.627Z,811.74
2018-02-15T07:24:09.631Z,811.74
2018-02-15T07:25:09.638Z,811.81
2018-02-15T07:26:09.637Z,811.77
2018-02-15T07:27:09.639Z,811.78
2018-02-15T07:28:09.650Z,811.79
2018-02-15T07:29:09.647Z,811.84
2018-02-15T07:30:09.661Z,811.82
2018-02-15T07:31:09.660Z,811.81
2018-02-15T07:32:09.655Z,811.85
2018-02-15T07:33:09.661Z,811.87
2018-02-15T07:34:09.666Z,811.89
2018-02-15T07:35:09.670Z,811.88
2018-02-15T07:36:09.700Z,811.90
2018-02-15T07:37:09.674Z,811.93
2018-02-15T07:38:09.680Z,811.99
2018-02-15T07:39:09.685Z,811.96
2018-02-15T07:40:09.683Z,812.00
2018-02-15T07:41:09.691Z,811.97
2018-02-15T07:42:09.695Z,812.02
2018-02-15T07:43:09.694Z,812.03
2018-02-15T07:44:09.721Z,812.08
2018-02-15T07:45:09.705Z,812.01
2018-02-15T07:46:09.711Z,811.93
2018-02-15T07:47:09.716Z,811.93
2018-02-15T07:48:09.710Z,812.02
2018-02-15T07:49:09.716Z,812.00
2018-02-15T07:50:09.720Z,811.98
2018-02-15T07:51:09.729Z,812.00
2018-02-15T07:52:09.733Z,812.08
2018-02-15T07:53:09.736Z,812.08
2018-02-15T07:54:09.734Z,812.05
2018-02-15T07:55:09.743Z,812.06
2018-02-15T07:56:09.739Z,812.08
2018-02-15T07:57:09.743Z,812.09
2018-02-15T07:58:09.748Z,812.10
2018-02-15T07:59:09.752Z,812.18
2018-02-15T08:00:09.755Z,812.10
2018-02-15T08:01:09.764Z,812.08
2018-02-15T08:02:09.768Z,812.10
2018-02-15T08:03:09.765Z,812.10
2018-02-15T08:04:09.776Z,812.12
2018-02-15T08:05:09.772Z,812.15
2018-02-15T08:06:09.777Z,812.13
2018-02-15T08:07:09.785Z,812.11
2018-02-15T08:08:09.786Z,812.13
2018-02-15T08:09:09.792Z,812.20
2018-02-15T08:10:09.792Z,812.18
2018-02-15T08:11:09.796Z,812.19
2018-02-15T08:12:09.801Z,812.16
2018-02-15T08:13:09.811Z,812.19
2018-02-15T08:14:09.808Z,812.17
2018-02-15T08:15:09.811Z,812.19
2018-02-15T08:16:09.820Z,812.21
2018-02-15T08:17:09.825Z,812.22
2018-02-15T08:18:09.825Z,812.17
2018-02-15T08:19:09.829Z,812.23
2018-02-15T08:20:09.827Z,812.19
2018-02-15T08:21:09.839Z,812.19
2018-02-15T08:22:09.840Z,812.21
2018-02-15T08:23:09.844Z,812.34
2018-02-15T08:24:09.843Z,812.32
2018-02-15T08:25:09.846Z,812.20
2018-02-15T08:26:09.851Z,812.29
2018-02-15T08:27:09.861Z,812.35
2018-02-15T08:28:09.864Z,812.32
2018-02-15T08:29:09.870Z,812.33
2018-02-15T08:30:09.868Z,812.28
2018-02-15T08:31:09.874Z,812.29
2018-02-15T08:32:09.872Z,812.33
2018-02-15T08:33:09.880Z,812.38
2018-02-15T08:34:09.886Z,812.36
2018-02-15T08:35:09.884Z,812.35
2018-02-15T08:36:09.888Z,812.34
2018-02-15T08:37:09.893Z,812.36
2018-02-15T08:38:09.896Z,812.42
2018-02-15T08:39:09.905Z,812.39
2018-02-15T08:40:09.904Z,812.44
2018-02-15T08:41:09.912Z,812.41
2018-02-15T08:42:09.912Z,812.42
2018-02-15T08:43:09.914Z,812.45
2018-02-15T08:44:09.924Z,812.44
2018-02-15T08:45:09.932Z,812.47
2018-02-15T08:46:09.934Z,812.53
2018-02-15T08:47:09.931Z,812.54
2018-02-15T08:48:09.934Z,812.53
2018-02-15T08:49:09.945Z,812.59
2018-02-15T08:50:09.944Z,812.61
2018-02-15T08:51:09.945Z,812.60
2018-02-15T08:52:09.950Z,812.56
2018-02-15T08:53:09.961Z,812.63
2018-02-15T08:54:09.958Z,812.64
2018-02-15T08:55:09.967Z,812.62
2018-02-15T08:56:09.970Z,812.62
2018-02-15T08:57:09.975Z,812.67
2018-02-15T08:58:09.973Z,812.71
2018-02-15T08:59:09.983Z,812.73
2018-02-15T09:00:09.985Z,812.68
2018-02-15T09:01:09.986Z,812.69
2018-02-15T09:02:09.996Z,812.81
2018-02-15T09:03:09.994Z,812.82
2018-02-15T09:04:10.008Z,812.75
2018-02-15T09:05:10.003Z,812.70
2018-02-15T09:06:10.012Z,812.85
2018-02-15T09:07:10.013Z,812.87
2018-02-15T09:08:10.013Z,812.81
2018-02-15T09:09:10.019Z,812.73
2018-02-15T09:10:10.021Z,812.79
2018-02-15T09:11:10.025Z,812.87
2018-02-15T09:12:10.028Z,812.84
2018-02-15T09:13:10.037Z,812.83
2018-02-15T09:14:10.037Z,812.86
2018-02-15T09:15:10.044Z,812.89
2018-02-15T09:16:10.050Z,812.90
2018-02-15T09:17:10.047Z,812.96
2018-02-15T09:18:10.053Z,813.00
2018-02-15T09:19:10.056Z,812.98
2018-02-15T09:20:10.064Z,813.00
2018-02-15T09:21:10.062Z,813.01
2018-02-15T09:22:10.067Z,813.04
2018-02-15T09:23:10.078Z,813.08
2018-02-15T09:24:10.081Z,813.05
2018-02-15T09:25:10.079Z,813.01
2018-02-15T09:26:10.088Z,813.12
2018-02-15T09:27:10.092Z,813.17
2018-02-15T09:28:10.092Z,813.15
2018-02-15T09:29:10.102Z,813.11
2018-02-15T09:30:10.098Z,813.20
2018-02-15T09:31:10.109Z,813.27
2018-02-15T09:32:10.107Z,813.18
2018-02-15T09:33:10.117Z,813.18
2018-02-15T09:34:10.125Z,813.19
2018-02-15T09:35:10.121Z,813.21
2018-02-15T09:36:10.123Z,813.25
2018-02-15T09:37:10.134Z,813.26
2018-02-15T09:38:10.172Z,813.27
2018-02-15T09:39:10.134Z,813.24
2018-02-15T09:40:10.141Z,813.23
2018-02-15T09:41:10.150Z,813.26
2018-02-15T09:42:10.155Z,813.29
2018-02-15T09:43:10.157Z,813.30
2018-02-15T09:44:10.158Z,813.34
2018-02-15T09:45:10.169Z,813.29
2018-02-15T09:46:10.165Z,813.30
2018-02-15T09:47:10.176Z,813.34
2018-02-15T09:48:10.175Z,813.35
2018-02-15T09:49:10.178Z,813.37
2018-02-15T09:50:10.192Z,813.35
2018-02-15T09:51:10.189Z,813.36
2018-02-15T09:52:10.193Z,813.42
2018-02-15T09:53:10.198Z,813.46
2018-02-15T09:54:10.206Z,813.36
2018-02-15T09:55:10.206Z,813.42
2018-02-15T09:56:10.211Z,813.45
2018-02-15T09:57:10.214Z,813.45
2018-02-15T09:58:10.221Z,813.48
2018-02-15T09:59:10.224Z,813.44
2018-02-15T10:00:10.229Z,813.43
2018-02-15T10:01:10.234Z,813.43
2018-02-15T10:02:10.244Z,813.46
2018-02-15T10:03:10.251Z,813.51
2018-02-15T10:04:10.254Z,813.51
2018-02-15T10:05:10.261Z,813.53
2018-02-15T10:06:10.265Z,813.54
2018-02-15T10:07:10.269Z,813.58
2018-02-15T10:08:10.273Z,813.61
2018-02-15T10:09:10.273Z,813.63
2018-02-15T10:10:10.282Z,813.65
2018-02-15T10:11:10.282Z,813.64
2018-02-15T10:12:10.289Z,813.62
2018-02-15T10:13:10.293Z,813.62
2018-02-15T10:14:10.297Z,813.67
2018-02-15T10:15:10.307Z,813.66
2018-02-15T10:16:10.313Z,813.65
2018-02-15T10:17:10.319Z,813.66
2018-02-15T10:18:10.324Z,813.68
2018-02-15T10:19:10.323Z,813.71
2018-02-15T10:20:10.335Z,813.73
2018-02-15T10:21:10.340Z,813.80
2018-02-15T10:22:10.349Z,813.81
2018-02-15T10:23:10.348Z,813.84
2018-02-15T10:24:10.350Z,813.83
2018-02-15T10:25:10.360Z,813.84
2018-02-15T10:26:10.363Z,813.84
2018-02-15T10:27:10.402Z,813.90
2018-02-15T10:28:10.381Z,813.89
2018-02-15T10:29:10.378Z,813.84
2018-02-15T10:30:10.391Z,813.91
2018-02-15T10:31:10.390Z,813.93
2018-02-15T10:32:10.401Z,813.95
2018-02-15T10:33:10.407Z,813.94
2018-02-15T10:34:10.438Z,813.94
2018-02-15T10:35:10.418Z,814.00
2018-02-15T10:36:10.423Z,813.96
2018-02-15T10:37:10.424Z,813.97
2018-02-15T10:38:10.434Z,813.96
2018-02-15T10:39:10.442Z,814.02
2018-02-15T10:40:10.449Z,814.00
2018-02-15T10:41:10.455Z,814.03
2018-02-15T10:42:10.460Z,814.03
2018-02-15T10:43:10.459Z,814.01
2018-02-15T10:44:10.471Z,814.02
2018-02-15T10:45:10.472Z,814.05
2018-02-15T10:46:10.480Z,814.10
2018-02-15T10:47:10.486Z,814.06
2018-02-15T10:48:10.490Z,814.04
2018-02-15T10:49:10.503Z,814.03
2018-02-15T10:50:10.503Z,814.00
2018-02-15T10:51:10.517Z,814.01
2018-02-15T10:52:10.515Z,814.04
2018-02-15T10:53:10.522Z,814.04
2018-02-15T10:54:10.529Z,814.05
2018-02-15T10:55:10.539Z,814.03
2018-02-15T10:56:10.548Z,814.01
2018-02-15T10:57:10.550Z,814.09
2018-02-15T10:58:10.558Z,814.05
2018-02-15T10:59:10.562Z,814.04
2018-02-15T11:00:10.569Z,814.06
2018-02-15T11:01:10.577Z,814.07
2018-02-15T11:02:10.586Z,814.12
2018-02-15T11:03:10.582Z,814.14
2018-02-15T11:04:10.590Z,814.11
2018-02-15T11:05:10.597Z,814.14
2018-02-15T11:06:10.608Z,814.16
2018-02-15T11:07:10.612Z,814.19
2018-02-15T11:08:10.619Z,814.18
2018-02-15T11:09:10.620Z,814.24
2018-02-15T11:10:10.626Z,814.19
2018-02-15T11:11:10.637Z,814.18
2018-02-15T11:12:10.639Z,814.18
2018-02-15T11:13:10.646Z,814.17
2018-02-15T11:14:10.656Z,814.21
2018-02-15T11:15:10.663Z,814.17
2018-02-15T11:16:10.668Z,814.23
2018-02-15T11:17:10.675Z,814.21
2018-02-15T11:18:10.677Z,814.22
2018-02-15T11:19:10.689Z,814.23
2018-02-15T11:20:10.690Z,814.23
2018-02-15T11:21:10.703Z,814.26
2018-02-15T11:22:10.703Z,814.21
2018-02-15T11:23:10.709Z,814.25
2018-02-15T11:24:10.723Z,814.23
2018-02-15T11:25:10.729Z,814.24
2018-02-15T11:26:10.729Z,814.23
2018-02-15T11:27:10.786Z,814.28
2018-02-15T11:28:10.747Z,814.29
2018-02-15T11:29:10.748Z,814.31
2018-02-15T11:30:10.761Z,814.33
2018-02-15T11:31:10.761Z,814.34
2018-02-15T11:32:10.774Z,814.36
2018-02-15T11:33:10.784Z,814.37
2018-02-15T11:34:10.786Z,814.38
2018-02-15T11:35:10.787Z,814.42
2018-02-15T11:36:10.800Z,814.36
2018-02-15T11:37:10.806Z,814.41
2018-02-15T11:38:10.808Z,814.42
2018-02-15T11:39:10.816Z,814.47
2018-02-15T11:40:10.825Z,814.47
2018-02-15T11:41:10.829Z,814.49
2018-02-15T11:42:10.837Z,814.48
2018-02-15T11:43:10.841Z,814.48
2018-02-15T11:44:10.853Z,814.48
2018-02-15T11:45:10.861Z,814.47
2018-02-15T11:46:10.863Z,814.52
2018-02-15T11:47:10.868Z,814.54
2018-02-15T11:48:10.880Z,814.57
2018-02-15T11:49:10.887Z,814.57
2018-02-15T11:50:10.893Z,814.58
2018-02-15T11:51:10.895Z,814.53
2018-02-15T11:52:10.905Z,814.52
2018-02-15T11:53:10.913Z,814.51
2018-02-15T11:54:10.925Z,814.54
2018-02-15T11:55:10.928Z,814.53
2018-02-15T11:56:10.936Z,814.54
2018-02-15T11:57:10.934Z,814.59
2018-02-15T11:58:10.942Z,814.54
2018-02-15T11:59:10.954Z,814.54
2018-02-15T12:00:10.955Z,814.53
2018-02-15T12:01:10.975Z,814.56
2018-02-15T12:02:10.975Z,814.61
2018-02-15T12:03:10.976Z,814.61
2018-02-15T12:04:10.994Z,814.65
2018-02-15T12:05:10.990Z,814.66
2018-02-15T12:06:11.000Z,814.65
2018-02-15T12:07:11.008Z,814.64
2018-02-15T12:08:11.010Z,814.65
2018-02-15T12:09:11.015Z,814.72
2018-02-15T12:10:11.026Z,814.67
2018-02-15T12:11:11.028Z,814.71
2018-02-15T12:12:11.043Z,814.70
2018-02-15T12:13:11.054Z,814.69
2018-02-15T12:14:11.057Z,814.68
2018-02-15T12:15:11.057Z,814.70
2018-02-15T12:16:11.069Z,814.70
2018-02-15T12:17:11.078Z,814.73
2018-02-15T12:18:11.083Z,814.71
2018-02-15T12:19:11.085Z,814.73
2018-02-15T12:20:11.092Z,814.79
2018-02-15T12:21:11.113Z,814.81
2018-02-15T12:22:11.105Z,814.84
2018-02-15T12:23:11.114Z,814.83
2018-02-15T12:24:11.124Z,814.88
2018-02-15T12:25:11.126Z,814.87
2018-02-15T12:26:11.132Z,814.87
2018-02-15T12:27:11.149Z,814.78
2018-02-15T12:28:11.154Z,814.83